createdAt,value
2017-09-10T00:01:04.738Z,0.00
2017-09-10T00:02:04.786Z,0.00
2017-09-10T00:03:57.792Z,0.00
2017-09-10T00:04:57.827Z,0.00
2017-09-10T00:06:50.832Z,0.00
2017-09-10T00:07:50.873Z,0.00
2017-09-10T00:09:43.884Z,0.00
2017-09-10T00:10:43.924Z,0.00
2017-09-10T00:12:36.910Z,0.00
2017-09-10T00:13:36.985Z,0.00
2017-09-10T00:15:29.986Z,0.00
2017-09-10T00:16:30.028Z,0.00
2017-09-10T00:18:23.022Z,0.00
2017-09-10T00:19:23.081Z,0.00
2017-09-10T00:21:16.595Z,0.00
2017-09-10T00:22:16.636Z,0.00
2017-09-10T00:24:09.668Z,0.00
2017-09-10T00:25:09.683Z,0.00
2017-09-10T00:27:02.676Z,0.00
2017-09-10T00:28:02.733Z,0.00
2017-09-10T00:29:55.741Z,0.00
2017-09-10T00:30:55.783Z,0.00
2017-09-10T00:32:48.773Z,0.00
2017-09-10T00:33:48.830Z,0.00
2017-09-10T00:35:41.839Z,0.00
2017-09-10T00:36:41.880Z,0.00
2017-09-10T00:38:34.870Z,0.00
2017-09-10T00:39:34.928Z,0.00
2017-09-10T00:41:27.935Z,0.00
2017-09-10T00:42:27.981Z,0.00
2017-09-10T00:44:20.998Z,0.00
2017-09-10T00:45:21.027Z,0.00
2017-09-10T00:47:14.011Z,0.00
2017-09-10T00:48:14.070Z,0.00
2017-09-10T00:50:07.081Z,0.00
2017-09-10T00:51:07.123Z,0.00
2017-09-10T00:53:00.113Z,0.00
2017-09-10T00:54:00.174Z,0.00
2017-09-10T00:55:53.181Z,0.00
2017-09-10T00:56:53.223Z,0.00
2017-09-10T00:58:46.210Z,0.00
2017-09-10T00:59:46.269Z,0.00
2017-09-10T01:01:39.284Z,0.00
2017-09-10T01:02:39.323Z,0.00
2017-09-10T01:04:32.341Z,0.00
2017-09-10T01:05:32.369Z,0.00
2017-09-10T01:07:25.360Z,0.00
2017-09-10T01:08:25.416Z,0.00
2017-09-10T01:10:18.423Z,0.00
2017-09-10T01:11:18.463Z,0.00
2017-09-10T01:13:11.454Z,0.00
2017-09-10T01:14:11.512Z,0.00
2017-09-10T01:16:04.517Z,0.00
2017-09-10T01:17:04.559Z,0.00
2017-09-10T01:18:57.545Z,0.00
2017-09-10T01:19:57.607Z,0.00
2017-09-10T01:21:50.614Z,0.00
2017-09-10T01:22:50.655Z,0.00
2017-09-10T01:24:43.659Z,0.00
2017-09-10T01:25:43.700Z,0.00
2017-09-10T01:27:36.708Z,0.00
2017-09-10T01:28:36.750Z,0.00
2017-09-10T01:30:29.761Z,0.00
2017-09-10T01:31:29.799Z,0.00
2017-09-10T01:33:22.789Z,0.00
2017-09-10T01:34:22.851Z,0.00
2017-09-10T01:36:15.859Z,0.00
2017-09-10T01:37:15.899Z,0.00
2017-09-10T01:39:08.889Z,0.00
2017-09-10T01:40:08.949Z,0.00
2017-09-10T01:42:01.954Z,0.00
2017-09-10T01:43:01.991Z,0.00
2017-09-10T01:44:54.999Z,0.00
2017-09-10T01:45:55.038Z,0.00
2017-09-10T01:47:53.086Z,0.00
2017-09-10T01:48:48.106Z,0.00
2017-09-10T01:50:41.112Z,0.00
2017-09-10T01:51:41.153Z,0.00
2017-09-10T01:53:34.142Z,0.00
2017-09-10T01:54:34.201Z,0.00
2017-09-10T01:56:27.208Z,0.00
2017-09-10T01:57:27.248Z,0.00
2017-09-10T01:59:20.237Z,0.00
2017-09-10T02:00:20.299Z,0.00
2017-09-10T02:02:13.306Z,0.00
2017-09-10T02:03:13.347Z,0.00
2017-09-10T02:05:06.336Z,0.00
2017-09-10T02:06:06.394Z,0.00
2017-09-10T02:07:59.403Z,0.00
2017-09-10T02:08:59.443Z,0.00
2017-09-10T02:10:52.431Z,0.00
2017-09-10T02:11:52.492Z,0.00
2017-09-10T02:13:45.495Z,0.00
2017-09-10T02:14:45.536Z,0.00
2017-09-10T02:16:38.544Z,0.00
2017-09-10T02:17:38.583Z,0.00
2017-09-10T02:19:31.571Z,0.00
2017-09-10T02:20:31.629Z,0.00
2017-09-10T02:22:24.635Z,0.00
2017-09-10T02:23:24.673Z,0.00
2017-09-10T02:25:17.662Z,0.00
2017-09-10T02:26:17.722Z,0.00
2017-09-10T02:28:10.728Z,0.00
2017-09-10T02:29:10.770Z,0.00
2017-09-10T02:31:03.799Z,0.00
2017-09-10T02:32:03.816Z,0.00
2017-09-10T02:33:56.806Z,0.00
2017-09-10T02:34:56.865Z,0.00
2017-09-10T02:36:49.874Z,0.00
2017-09-10T02:37:49.914Z,0.00
2017-09-10T02:39:42.906Z,0.00
2017-09-10T02:40:42.959Z,0.00
2017-09-10T02:42:35.966Z,0.00
2017-09-10T02:43:36.006Z,0.00
2017-09-10T02:45:28.992Z,0.00
2017-09-10T02:46:29.052Z,0.00
2017-09-10T02:48:22.060Z,0.00
2017-09-10T02:49:22.100Z,0.00
2017-09-10T02:51:15.086Z,0.00
2017-09-10T02:52:15.147Z,0.00
2017-09-10T02:54:08.151Z,0.00
2017-09-10T02:55:08.194Z,0.00
2017-09-10T02:57:01.197Z,0.00
2017-09-10T02:58:01.268Z,0.00
2017-09-10T02:59:54.229Z,0.00
2017-09-10T03:00:54.286Z,0.00
2017-09-10T03:02:47.293Z,0.00
2017-09-10T03:03:47.332Z,0.00
2017-09-10T03:05:40.321Z,0.00
2017-09-10T03:06:40.384Z,0.00
2017-09-10T03:08:33.389Z,0.00
2017-09-10T03:09:33.428Z,0.00
2017-09-10T03:11:26.417Z,0.00
2017-09-10T03:12:26.476Z,0.00
2017-09-10T03:14:19.485Z,0.00
2017-09-10T03:15:19.522Z,0.00
2017-09-10T03:17:12.529Z,0.00
2017-09-10T03:18:12.570Z,0.00
2017-09-10T03:20:05.556Z,0.00
2017-09-10T03:21:05.614Z,0.00
2017-09-10T03:22:58.618Z,0.00
2017-09-10T03:23:58.667Z,0.00
2017-09-10T03:25:51.645Z,0.00
2017-09-10T03:26:51.704Z,0.00
2017-09-10T03:28:44.713Z,0.00
2017-09-10T03:29:44.751Z,0.00
2017-09-10T03:31:37.740Z,0.00
2017-09-10T03:32:37.800Z,0.00
2017-09-10T03:34:30.825Z,0.00
2017-09-10T03:35:30.865Z,0.00
2017-09-10T03:37:23.871Z,0.00
2017-09-10T03:38:23.911Z,0.00
2017-09-10T03:40:16.899Z,0.00
2017-09-10T03:41:16.957Z,0.00
2017-09-10T03:43:09.963Z,0.00
2017-09-10T03:44:10.004Z,0.00
2017-09-10T03:46:02.986Z,0.00
2017-09-10T03:47:03.048Z,0.00
2017-09-10T03:48:56.052Z,0.00
2017-09-10T03:49:56.097Z,0.00
2017-09-10T03:51:49.081Z,0.00
2017-09-10T03:52:49.136Z,0.00
2017-09-10T03:54:42.144Z,0.00
2017-09-10T03:55:42.182Z,0.00
2017-09-10T03:57:35.187Z,0.00
2017-09-10T03:58:35.227Z,0.00
2017-09-10T04:00:28.211Z,0.00
2017-09-10T04:01:28.271Z,0.00
2017-09-10T04:03:21.276Z,0.00
2017-09-10T04:04:21.316Z,0.00
2017-09-10T04:06:14.303Z,0.00
2017-09-10T04:07:14.359Z,0.00
2017-09-10T04:09:07.365Z,0.00
2017-09-10T04:10:07.412Z,0.00
2017-09-10T04:12:00.387Z,0.00
2017-09-10T04:13:00.446Z,0.00
2017-09-10T04:14:53.451Z,0.00
2017-09-10T04:15:53.492Z,0.00
2017-09-10T04:17:46.499Z,0.00
2017-09-10T04:18:46.538Z,0.00
2017-09-10T04:20:39.528Z,0.00
2017-09-10T04:21:39.589Z,0.00
2017-09-10T04:23:32.601Z,0.00
2017-09-10T04:24:32.641Z,0.00
2017-09-10T04:26:25.629Z,4.00
2017-09-10T04:27:25.689Z,4.00
2017-09-10T04:29:18.698Z,4.00
2017-09-10T04:30:18.741Z,4.00
2017-09-10T04:32:11.724Z,8.00
2017-09-10T04:33:11.781Z,8.00
2017-09-10T04:35:04.788Z,8.00
2017-09-10T04:36:04.828Z,12.00
2017-09-10T04:37:57.832Z,16.00
2017-09-10T04:38:57.874Z,20.00
2017-09-10T04:40:50.860Z,24.00
2017-09-10T04:41:50.918Z,32.00
2017-09-10T04:43:43.923Z,36.00
2017-09-10T04:44:43.962Z,44.00
2017-09-10T04:46:36.948Z,56.00
2017-09-10T04:47:37.005Z,64.00
2017-09-10T04:49:30.016Z,80.00
2017-09-10T04:50:30.055Z,88.00
2017-09-10T04:52:23.044Z,108.00
2017-09-10T04:53:23.103Z,120.00
2017-09-10T04:55:16.109Z,144.00
2017-09-10T04:56:16.149Z,156.00
2017-09-10T04:58:09.154Z,184.00
2017-09-10T04:59:09.198Z,200.00
2017-09-10T05:01:02.180Z,232.00
2017-09-10T05:02:02.241Z,256.00
2017-09-10T05:03:55.246Z,300.00
2017-09-10T05:04:55.287Z,328.00
2017-09-10T05:06:48.275Z,380.00
2017-09-10T05:07:48.331Z,408.00
2017-09-10T05:09:41.336Z,464.00
2017-09-10T05:10:41.376Z,500.00
2017-09-10T05:12:34.364Z,556.00
2017-09-10T05:13:34.419Z,596.00
2017-09-10T05:15:27.431Z,668.00
2017-09-10T05:16:27.471Z,708.00
2017-09-10T05:18:20.482Z,792.00
2017-09-10T05:19:20.531Z,848.00
2017-09-10T05:21:14.020Z,976.00
2017-09-10T05:22:14.073Z,1044.00
2017-09-10T05:24:08.579Z,1236.00
2017-09-10T05:25:08.620Z,1300.00
2017-09-10T05:27:01.608Z,1436.00
2017-09-10T05:28:01.664Z,1508.00
2017-09-10T05:29:54.705Z,1684.00
2017-09-10T05:30:54.711Z,1788.00
2017-09-10T05:32:47.699Z,1932.00
2017-09-10T05:33:47.759Z,2024.00
2017-09-10T05:35:40.765Z,2244.00
2017-09-10T05:36:40.804Z,2224.00
2017-09-10T05:38:33.813Z,2292.00
2017-09-10T05:39:33.858Z,2328.00
2017-09-10T05:41:26.837Z,2444.00
2017-09-10T05:42:26.899Z,2624.00
2017-09-10T05:44:19.909Z,2744.00
2017-09-10T05:45:19.947Z,2816.00
2017-09-10T05:47:12.934Z,2968.00
2017-09-10T05:48:12.992Z,3040.00
2017-09-10T05:50:05.998Z,3172.00
2017-09-10T05:51:06.036Z,3196.00
2017-09-10T05:52:59.024Z,3536.00
2017-09-10T05:53:59.081Z,3680.00
2017-09-10T05:55:52.085Z,3936.00
2017-09-10T05:56:52.127Z,3980.00
2017-09-10T05:58:45.132Z,4184.00
2017-09-10T05:59:45.172Z,4300.00
2017-09-10T06:01:38.164Z,4248.00
2017-09-10T06:02:38.225Z,4276.00
2017-09-10T06:04:31.231Z,4344.00
2017-09-10T06:05:31.272Z,4420.00
2017-09-10T06:07:24.420Z,4860.00
2017-09-10T06:08:24.321Z,4928.00
2017-09-10T06:10:17.327Z,5188.00
2017-09-10T06:11:17.367Z,5284.00
2017-09-10T06:13:10.354Z,5480.00
2017-09-10T06:14:10.414Z,5624.00
2017-09-10T06:16:03.422Z,5816.00
2017-09-10T06:17:03.462Z,5944.00
2017-09-10T06:18:56.475Z,6296.00
2017-09-10T06:19:56.515Z,6392.00
2017-09-10T06:21:50.049Z,6928.00
2017-09-10T06:22:50.106Z,7028.00
2017-09-10T06:24:43.113Z,7324.00
2017-09-10T06:25:43.154Z,6756.00
2017-09-10T06:27:36.149Z,8112.00
2017-09-10T06:28:36.215Z,7980.00
2017-09-10T06:30:29.208Z,8792.00
2017-09-10T06:31:29.248Z,8656.00
2017-09-10T06:33:22.238Z,9384.00
2017-09-10T06:34:22.299Z,9640.00
2017-09-10T06:36:15.309Z,9540.00
2017-09-10T06:37:15.347Z,10060.00
2017-09-10T06:39:08.356Z,10860.00
2017-09-10T06:40:08.398Z,11204.00
2017-09-10T06:42:01.390Z,12180.00
2017-09-10T06:43:01.452Z,12020.00
2017-09-10T06:44:54.475Z,12904.00
2017-09-10T06:45:54.510Z,12412.00
2017-09-10T06:47:47.494Z,14012.00
2017-09-10T06:48:47.557Z,13944.00
2017-09-10T06:50:40.573Z,15744.00
2017-09-10T06:51:40.622Z,15712.00
2017-09-10T06:53:33.627Z,18144.00
2017-09-10T06:54:33.675Z,18272.00
2017-09-10T06:56:26.692Z,22208.00
2017-09-10T06:57:26.732Z,22784.00
2017-09-10T06:59:19.747Z,23936.00
2017-09-10T07:00:19.792Z,27264.00
2017-09-10T07:02:12.787Z,32640.00
2017-09-10T07:03:12.854Z,32096.00
2017-09-10T07:05:05.889Z,43776.00
2017-09-10T07:06:05.915Z,13360.00
2017-09-10T07:07:58.913Z,46880.00
2017-09-10T07:08:58.978Z,18624.00
2017-09-10T07:10:51.999Z,23648.00
2017-09-10T07:11:52.043Z,38560.00
2017-09-10T07:13:45.042Z,36864.00
2017-09-10T07:14:45.108Z,33824.00
2017-09-10T07:16:38.130Z,30272.00
2017-09-10T07:17:38.176Z,32000.00
2017-09-10T07:19:31.201Z,28960.00
2017-09-10T07:20:31.245Z,27840.00
2017-09-10T07:22:24.248Z,27520.00
2017-09-10T07:23:24.318Z,27872.00
2017-09-10T07:25:17.336Z,25920.00
2017-09-10T07:26:17.383Z,27104.00
2017-09-10T07:28:10.390Z,25344.00
2017-09-10T07:29:10.457Z,28096.00
2017-09-10T07:31:03.556Z,28736.00
2017-09-10T07:32:03.528Z,30752.00
2017-09-10T07:33:56.531Z,28416.00
2017-09-10T07:34:56.600Z,29504.00
2017-09-10T07:36:49.628Z,28544.00
2017-09-10T07:37:49.711Z,35232.00
2017-09-10T07:39:42.699Z,32064.00
2017-09-10T07:40:42.749Z,16864.00
2017-09-10T07:42:35.752Z,30976.00
2017-09-10T07:43:35.836Z,36992.00
2017-09-10T07:45:28.852Z,36832.00
2017-09-10T07:46:28.899Z,36864.00
2017-09-10T07:48:21.902Z,35456.00
2017-09-10T07:49:21.971Z,25440.00
2017-09-10T07:51:15.100Z,31136.00
2017-09-10T07:52:15.046Z,33280.00
2017-09-10T07:54:08.047Z,31584.00
2017-09-10T07:55:08.118Z,16832.00
2017-09-10T07:57:01.146Z,31552.00
2017-09-10T07:58:01.194Z,34656.00
2017-09-10T07:59:54.221Z,34816.00
2017-09-10T08:00:54.277Z,33824.00
2017-09-10T08:02:47.276Z,34496.00
2017-09-10T08:03:47.346Z,36992.00
2017-09-10T08:05:40.373Z,39456.00
2017-09-10T08:06:40.427Z,42752.00
2017-09-10T08:08:33.429Z,13248.00
2017-09-10T08:09:33.499Z,45344.00
2017-09-10T08:11:26.527Z,62752.00
2017-09-10T08:12:26.578Z,52416.00
2017-09-10T08:14:19.584Z,65344.00
2017-09-10T08:15:19.652Z,35008.00
2017-09-10T08:17:12.678Z,9600.00
2017-09-10T08:18:12.728Z,47456.00
2017-09-10T08:20:05.757Z,65952.00
2017-09-10T08:21:05.811Z,15428.00
2017-09-10T08:22:58.810Z,19200.00
2017-09-10T08:23:58.878Z,10432.00
2017-09-10T08:25:51.900Z,72160.00
2017-09-10T08:26:51.949Z,10108.00
2017-09-10T08:28:44.952Z,7672.00
2017-09-10T08:29:45.019Z,7312.00
2017-09-10T08:31:38.053Z,9276.00
2017-09-10T08:32:38.094Z,7884.00
2017-09-10T08:34:31.096Z,7640.00
2017-09-10T08:35:31.161Z,7420.00
2017-09-10T08:37:24.185Z,8088.00
2017-09-10T08:38:24.234Z,6236.00
2017-09-10T08:40:17.261Z,10028.00
2017-09-10T08:41:17.311Z,9768.00
2017-09-10T08:43:10.306Z,7968.00
2017-09-10T08:44:10.370Z,9508.00
2017-09-10T08:46:03.392Z,8300.00
2017-09-10T08:47:03.436Z,58784.00
2017-09-10T08:48:56.432Z,70432.00
2017-09-10T08:49:56.497Z,69728.00
2017-09-10T08:51:49.517Z,66752.00
2017-09-10T08:52:49.561Z,70432.00
2017-09-10T08:54:42.561Z,53824.00
2017-09-10T08:55:42.633Z,65440.00
2017-09-10T08:57:35.650Z,64320.00
2017-09-10T08:58:35.696Z,65248.00
2017-09-10T09:00:28.720Z,5252.00
2017-09-10T09:01:28.768Z,8732.00
2017-09-10T09:03:21.769Z,30400.00
2017-09-10T09:04:21.838Z,10928.00
2017-09-10T09:06:14.857Z,12896.00
2017-09-10T09:07:14.905Z,14568.00
2017-09-10T09:09:07.912Z,8864.00
2017-09-10T09:10:07.983Z,8456.00
2017-09-10T09:12:00.992Z,7568.00
2017-09-10T09:13:01.041Z,9452.00
2017-09-10T09:14:54.038Z,8664.00
2017-09-10T09:15:54.102Z,9348.00
2017-09-10T09:17:47.161Z,8884.00
2017-09-10T09:18:47.167Z,10848.00
2017-09-10T09:20:40.185Z,8300.00
2017-09-10T09:21:40.230Z,10464.00
2017-09-10T09:23:33.230Z,8564.00
2017-09-10T09:24:33.293Z,7360.00
2017-09-10T09:26:26.309Z,9104.00
2017-09-10T09:27:26.354Z,8504.00
2017-09-10T09:29:19.389Z,7052.00
2017-09-10T09:30:19.415Z,10160.00
2017-09-10T09:32:12.432Z,12328.00
2017-09-10T09:33:12.478Z,16528.00
2017-09-10T09:35:05.474Z,17696.00
2017-09-10T09:36:05.537Z,15008.00
2017-09-10T09:37:58.552Z,10400.00
2017-09-10T09:38:58.598Z,13488.00
2017-09-10T09:40:51.618Z,13992.00
2017-09-10T09:41:51.661Z,15040.00
2017-09-10T09:43:44.659Z,15628.00
2017-09-10T09:44:44.724Z,11776.00
2017-09-10T09:46:37.743Z,10652.00
2017-09-10T09:47:37.790Z,9200.00
2017-09-10T09:49:30.786Z,13392.00
2017-09-10T09:50:30.853Z,12448.00
2017-09-10T09:52:23.869Z,14144.00
2017-09-10T09:53:23.917Z,10388.00
2017-09-10T09:55:16.915Z,13500.00
2017-09-10T09:56:16.983Z,7352.00
2017-09-10T09:58:10.007Z,6580.00
2017-09-10T09:59:10.047Z,11752.00
2017-09-10T10:01:03.065Z,8900.00
2017-09-10T10:02:03.115Z,6624.00
2017-09-10T10:03:56.108Z,4996.00
2017-09-10T10:04:56.173Z,7156.00
2017-09-10T10:06:49.191Z,7044.00
2017-09-10T10:07:49.237Z,7068.00
2017-09-10T10:09:42.237Z,8600.00
2017-09-10T10:10:42.297Z,7376.00
2017-09-10T10:12:35.314Z,6492.00
2017-09-10T10:13:35.381Z,6424.00
2017-09-10T10:15:28.370Z,10152.00
2017-09-10T10:16:28.422Z,9320.00
2017-09-10T10:18:21.436Z,9404.00
2017-09-10T10:19:21.481Z,10324.00
2017-09-10T10:21:15.006Z,7496.00
2017-09-10T10:22:15.049Z,9836.00
2017-09-10T10:24:08.048Z,12792.00
2017-09-10T10:25:08.113Z,10672.00
2017-09-10T10:27:01.143Z,8612.00
2017-09-10T10:28:01.185Z,6460.00
2017-09-10T10:29:54.180Z,5300.00
2017-09-10T10:30:54.245Z,5508.00
2017-09-10T10:32:47.263Z,6616.00
2017-09-10T10:33:47.308Z,5336.00
2017-09-10T10:35:40.306Z,8284.00
2017-09-10T10:36:40.374Z,8736.00
2017-09-10T10:38:33.393Z,5792.00
2017-09-10T10:39:33.436Z,6188.00
2017-09-10T10:41:26.452Z,6984.00
2017-09-10T10:42:26.499Z,5780.00
2017-09-10T10:44:19.508Z,7512.00
2017-09-10T10:45:19.559Z,6036.00
2017-09-10T10:47:12.579Z,7520.00
2017-09-10T10:48:12.665Z,7620.00
2017-09-10T10:50:05.620Z,6964.00
2017-09-10T10:51:05.686Z,5828.00
2017-09-10T10:52:58.706Z,4992.00
2017-09-10T10:53:58.747Z,5044.00
2017-09-10T10:55:51.757Z,5092.00
2017-09-10T10:56:51.823Z,5668.00
2017-09-10T10:58:44.844Z,5896.00
2017-09-10T10:59:44.890Z,5504.00
2017-09-10T11:01:37.908Z,5796.00
2017-09-10T11:02:37.950Z,5720.00
2017-09-10T11:04:30.946Z,6128.00
2017-09-10T11:05:31.009Z,6268.00
2017-09-10T11:07:24.042Z,6132.00
2017-09-10T11:08:24.072Z,5084.00
2017-09-10T11:10:17.067Z,6048.00
2017-09-10T11:11:17.132Z,6548.00
2017-09-10T11:13:10.152Z,6044.00
2017-09-10T11:14:10.198Z,5668.00
2017-09-10T11:16:03.192Z,5512.00
2017-09-10T11:17:03.256Z,7928.00
2017-09-10T11:18:56.270Z,7296.00
2017-09-10T11:19:56.317Z,8180.00
2017-09-10T11:21:49.843Z,5708.00
2017-09-10T11:22:49.900Z,4900.00
2017-09-10T11:24:42.878Z,9084.00
2017-09-10T11:25:42.943Z,9468.00
2017-09-10T11:27:35.982Z,7544.00
2017-09-10T11:28:36.021Z,8940.00
2017-09-10T11:30:29.020Z,11912.00
2017-09-10T11:31:29.079Z,9820.00
2017-09-10T11:33:22.093Z,10712.00
2017-09-10T11:34:22.138Z,7936.00
2017-09-10T11:36:15.140Z,8800.00
2017-09-10T11:37:15.234Z,10748.00
2017-09-10T11:39:08.240Z,9792.00
2017-09-10T11:40:08.284Z,8788.00
2017-09-10T11:42:01.300Z,8748.00
2017-09-10T11:43:01.345Z,9820.00
2017-09-10T11:44:54.339Z,13088.00
2017-09-10T11:45:54.405Z,14208.00
2017-09-10T11:47:47.422Z,8868.00
2017-09-10T11:48:47.467Z,8716.00
2017-09-10T11:50:40.463Z,14108.00
2017-09-10T11:51:40.529Z,14868.00
2017-09-10T11:53:33.544Z,10208.00
2017-09-10T11:54:33.592Z,7092.00
2017-09-10T11:56:26.587Z,9396.00
2017-09-10T11:57:26.652Z,10056.00
2017-09-10T11:59:19.670Z,13644.00
2017-09-10T12:00:19.715Z,12060.00
2017-09-10T12:02:12.731Z,11236.00
2017-09-10T12:03:12.780Z,13296.00
2017-09-10T12:05:05.774Z,12752.00
2017-09-10T12:06:05.842Z,11772.00
2017-09-10T12:07:58.865Z,13112.00
2017-09-10T12:08:58.911Z,12316.00
2017-09-10T12:10:51.915Z,11644.00
2017-09-10T12:11:51.980Z,12224.00
2017-09-10T12:13:45.008Z,9592.00
2017-09-10T12:14:45.052Z,9128.00
2017-09-10T12:16:38.054Z,8448.00
2017-09-10T12:17:38.120Z,9996.00
2017-09-10T12:19:31.139Z,8656.00
2017-09-10T12:20:31.185Z,9196.00
2017-09-10T12:22:24.202Z,10820.00
2017-09-10T12:23:24.248Z,11052.00
2017-09-10T12:25:17.243Z,11012.00
2017-09-10T12:26:17.309Z,11880.00
2017-09-10T12:28:10.326Z,14104.00
2017-09-10T12:29:10.370Z,12164.00
2017-09-10T12:31:03.369Z,11016.00
2017-09-10T12:32:03.437Z,12448.00
2017-09-10T12:33:56.449Z,11168.00
2017-09-10T12:34:56.496Z,9132.00
2017-09-10T12:36:49.492Z,7484.00
2017-09-10T12:37:49.561Z,6624.00
2017-09-10T12:39:42.577Z,8180.00
2017-09-10T12:40:42.622Z,9352.00
2017-09-10T12:42:35.637Z,6256.00
2017-09-10T12:43:35.685Z,5532.00
2017-09-10T12:45:28.681Z,8432.00
2017-09-10T12:46:28.745Z,9820.00
2017-09-10T12:48:21.768Z,7384.00
2017-09-10T12:49:21.808Z,8756.00
2017-09-10T12:51:14.802Z,11676.00
2017-09-10T12:52:14.867Z,11892.00
2017-09-10T12:54:07.883Z,8224.00
2017-09-10T12:55:07.932Z,7768.00
2017-09-10T12:57:00.925Z,10312.00
2017-09-10T12:58:00.990Z,12664.00
2017-09-10T12:59:54.007Z,5756.00
2017-09-10T13:00:54.052Z,5568.00
2017-09-10T13:02:47.082Z,5836.00
2017-09-10T13:03:47.116Z,5692.00
2017-09-10T13:05:40.112Z,5340.00
2017-09-10T13:06:40.179Z,4724.00
2017-09-10T13:08:33.201Z,4056.00
2017-09-10T13:09:33.238Z,4024.00
2017-09-10T13:11:26.235Z,4556.00
2017-09-10T13:12:26.299Z,4764.00
2017-09-10T13:14:19.315Z,7356.00
2017-09-10T13:15:19.360Z,10768.00
2017-09-10T13:17:12.356Z,7984.00
2017-09-10T13:18:12.420Z,6028.00
2017-09-10T13:20:05.438Z,4348.00
2017-09-10T13:21:05.479Z,4700.00
2017-09-10T13:22:58.495Z,6552.00
2017-09-10T13:23:58.543Z,6740.00
2017-09-10T13:25:51.542Z,7296.00
2017-09-10T13:26:51.607Z,11240.00
2017-09-10T13:28:44.622Z,6772.00
2017-09-10T13:29:44.668Z,6496.00
2017-09-10T13:31:37.662Z,8648.00
2017-09-10T13:32:37.728Z,8872.00
2017-09-10T13:34:30.743Z,6736.00
2017-09-10T13:35:30.788Z,7188.00
2017-09-10T13:37:23.781Z,8916.00
2017-09-10T13:38:23.846Z,7996.00
2017-09-10T13:40:17.373Z,5688.00
2017-09-10T13:41:17.415Z,3968.00
2017-09-10T13:43:10.433Z,3576.00
2017-09-10T13:44:10.478Z,3696.00
2017-09-10T13:46:03.473Z,6640.00
2017-09-10T13:47:03.559Z,7960.00
2017-09-10T13:48:56.554Z,7956.00
2017-09-10T13:49:56.600Z,7056.00
2017-09-10T13:51:49.598Z,7360.00
2017-09-10T13:52:49.663Z,6292.00
2017-09-10T13:54:42.677Z,5820.00
2017-09-10T13:55:42.722Z,5988.00
2017-09-10T13:57:35.718Z,5228.00
2017-09-10T13:58:35.785Z,6440.00
2017-09-10T14:00:28.801Z,6412.00
2017-09-10T14:01:28.846Z,6324.00
2017-09-10T14:03:21.844Z,7724.00
2017-09-10T14:04:21.906Z,11148.00
2017-09-10T14:06:14.927Z,7612.00
2017-09-10T14:07:14.972Z,4832.00
2017-09-10T14:09:07.974Z,5032.00
2017-09-10T14:10:08.039Z,4264.00
2017-09-10T14:12:01.058Z,4616.00
2017-09-10T14:13:01.101Z,5644.00
2017-09-10T14:14:54.119Z,5076.00
2017-09-10T14:15:54.167Z,5276.00
2017-09-10T14:17:47.162Z,5556.00
2017-09-10T14:18:47.228Z,5900.00
2017-09-10T14:20:40.249Z,5192.00
2017-09-10T14:21:40.295Z,3928.00
2017-09-10T14:23:33.298Z,3920.00
2017-09-10T14:24:33.358Z,5796.00
2017-09-10T14:26:26.378Z,8640.00
2017-09-10T14:27:26.426Z,8328.00
2017-09-10T14:29:19.421Z,7804.00
2017-09-10T14:30:19.487Z,6344.00
2017-09-10T14:32:12.503Z,6352.00
2017-09-10T14:33:12.548Z,6756.00
2017-09-10T14:35:05.569Z,8432.00
2017-09-10T14:36:05.613Z,9404.00
2017-09-10T14:37:58.607Z,7100.00
2017-09-10T14:38:58.673Z,5352.00
2017-09-10T14:40:53.201Z,5240.00
2017-09-10T14:41:53.246Z,4188.00
2017-09-10T14:43:46.240Z,5796.00
2017-09-10T14:44:46.310Z,5388.00
2017-09-10T14:46:39.321Z,6112.00
2017-09-10T14:47:39.366Z,6864.00
2017-09-10T14:49:32.362Z,6240.00
2017-09-10T14:50:32.428Z,6216.00
2017-09-10T14:52:25.443Z,5284.00
2017-09-10T14:53:25.488Z,6108.00
2017-09-10T14:55:18.502Z,5684.00
2017-09-10T14:56:18.549Z,6064.00
2017-09-10T14:58:11.545Z,6700.00
2017-09-10T14:59:11.609Z,4744.00
2017-09-10T15:01:04.623Z,3636.00
2017-09-10T15:02:04.668Z,4188.00
2017-09-10T15:03:57.670Z,3904.00
2017-09-10T15:04:57.763Z,3524.00
2017-09-10T15:06:50.750Z,5372.00
2017-09-10T15:07:50.794Z,5232.00
2017-09-10T15:09:43.789Z,5672.00
2017-09-10T15:10:43.855Z,5904.00
2017-09-10T15:12:36.871Z,5040.00
2017-09-10T15:13:36.920Z,4296.00
2017-09-10T15:15:29.929Z,3012.00
2017-09-10T15:16:29.974Z,3224.00
2017-09-10T15:18:22.970Z,4916.00
2017-09-10T15:19:23.050Z,5628.00
2017-09-10T15:21:16.058Z,4172.00
2017-09-10T15:22:16.094Z,3340.00
2017-09-10T15:24:09.092Z,4836.00
2017-09-10T15:25:09.160Z,6548.00
2017-09-10T15:27:02.177Z,5396.00
2017-09-10T15:28:02.222Z,5268.00
2017-09-10T15:29:55.214Z,3768.00
2017-09-10T15:30:55.280Z,3372.00
2017-09-10T15:32:48.298Z,4044.00
2017-09-10T15:33:48.342Z,5532.00
2017-09-10T15:35:41.377Z,5528.00
2017-09-10T15:36:41.405Z,4980.00
2017-09-10T15:38:34.413Z,5572.00
2017-09-10T15:39:34.497Z,5656.00
2017-09-10T15:41:27.507Z,4884.00
2017-09-10T15:42:27.540Z,5196.00
2017-09-10T15:44:20.536Z,5408.00
2017-09-10T15:45:20.618Z,4856.00
2017-09-10T15:47:13.626Z,5496.00
2017-09-10T15:48:13.669Z,4608.00
2017-09-10T15:50:06.664Z,3992.00
2017-09-10T15:51:06.725Z,4308.00
2017-09-10T15:52:59.741Z,4136.00
2017-09-10T15:53:59.786Z,4360.00
2017-09-10T15:55:52.811Z,3992.00
2017-09-10T15:56:52.867Z,4376.00
2017-09-10T15:58:45.844Z,4144.00
2017-09-10T15:59:45.906Z,3868.00
2017-09-10T16:01:38.923Z,4100.00
2017-09-10T16:02:38.972Z,4120.00
2017-09-10T16:04:31.961Z,3576.00
2017-09-10T16:05:32.026Z,4260.00
2017-09-10T16:07:25.049Z,5820.00
2017-09-10T16:08:25.094Z,5352.00
2017-09-10T16:10:18.146Z,4568.00
2017-09-10T16:11:18.170Z,4060.00
2017-09-10T16:13:11.169Z,3480.00
2017-09-10T16:14:11.245Z,3404.00
2017-09-10T16:16:04.262Z,4348.00
2017-09-10T16:17:04.303Z,3344.00
2017-09-10T16:18:57.300Z,2692.00
2017-09-10T16:19:57.366Z,2888.00
2017-09-10T16:21:50.389Z,2972.00
2017-09-10T16:22:50.433Z,2428.00
2017-09-10T16:24:43.439Z,1608.00
2017-09-10T16:25:43.493Z,1076.00
2017-09-10T16:27:36.517Z,1456.00
2017-09-10T16:28:36.555Z,972.00
2017-09-10T16:30:29.595Z,2288.00
2017-09-10T16:31:29.624Z,2416.00
2017-09-10T16:33:22.631Z,2668.00
2017-09-10T16:34:22.692Z,2740.00
2017-09-10T16:36:15.713Z,2816.00
2017-09-10T16:37:15.770Z,2792.00
2017-09-10T16:39:08.760Z,2072.00
2017-09-10T16:40:08.828Z,2056.00
2017-09-10T16:42:01.849Z,2172.00
2017-09-10T16:43:01.892Z,1956.00
2017-09-10T16:44:54.887Z,1636.00
2017-09-10T16:45:54.958Z,1444.00
2017-09-10T16:47:47.976Z,1280.00
2017-09-10T16:48:48.020Z,1288.00
2017-09-10T16:50:41.051Z,1236.00
2017-09-10T16:51:41.100Z,1164.00
2017-09-10T16:53:34.095Z,1040.00
2017-09-10T16:54:34.153Z,896.00
2017-09-10T16:56:27.165Z,652.00
2017-09-10T16:57:27.213Z,560.00
2017-09-10T16:59:20.207Z,492.00
2017-09-10T17:00:20.276Z,660.00
2017-09-10T17:02:13.285Z,988.00
2017-09-10T17:03:13.329Z,1116.00
2017-09-10T17:05:06.325Z,1188.00
2017-09-10T17:06:06.392Z,1216.00
2017-09-10T17:07:59.405Z,1156.00
2017-09-10T17:08:59.458Z,1120.00
2017-09-10T17:10:52.476Z,1000.00
2017-09-10T17:11:52.516Z,904.00
2017-09-10T17:13:45.519Z,884.00
2017-09-10T17:14:45.580Z,880.00
2017-09-10T17:16:38.598Z,828.00
2017-09-10T17:17:38.643Z,800.00
2017-09-10T17:19:31.634Z,776.00
2017-09-10T17:20:31.702Z,772.00
2017-09-10T17:22:24.746Z,744.00
2017-09-10T17:23:24.756Z,724.00
2017-09-10T17:25:17.747Z,708.00
2017-09-10T17:26:17.817Z,700.00
2017-09-10T17:28:10.831Z,680.00
2017-09-10T17:29:10.881Z,676.00
2017-09-10T17:31:03.891Z,656.00
2017-09-10T17:32:03.932Z,644.00
2017-09-10T17:33:56.927Z,624.00
2017-09-10T17:34:56.990Z,612.00
2017-09-10T17:36:50.005Z,572.00
2017-09-10T17:37:50.047Z,548.00
2017-09-10T17:39:43.039Z,508.00
2017-09-10T17:40:43.103Z,480.00
2017-09-10T17:42:36.117Z,428.00
2017-09-10T17:43:36.163Z,404.00
2017-09-10T17:45:29.155Z,348.00
2017-09-10T17:46:29.217Z,320.00
2017-09-10T17:48:22.239Z,276.00